Time;durP1;ratioP1;P1;durP2;ratioP2;P2;SDS_P1;SDS_P2;PMS_P1;PMS_P2;Temp;Humidity;BMP_temperature;BMP_pressure;BME280_temperature;BME280_humidity;BME280_pressure;Samples;Min_cycle;Max_cycle;Signal;HPM_P1;HPM_P2
2021/09/27 00:01:17;;;;;;;21.70;15.27;;;;;;;;;;4980949;28;20036;-60
2021/09/27 00:03:44;;;;;;;15.65;13.98;;;;;;;;;;4977901;28;20057;-59
2021/09/27 00:06:09;;;;;;;18.88;16.17;;;;;;;;;;4982210;28;20031;-59
2021/09/27 00:08:35;;;;;;;18.58;14.38;;;;;;;;;;4977456;28;20057;-57
2021/09/27 00:11:02;;;;;;;17.77;15.00;;;;;;;;;;4981638;28;20026;-58
2021/09/27 00:13:29;;;;;;;15.57;13.98;;;;;;;;;;4978087;28;20034;-58
2021/09/27 00:15:56;;;;;;;17.10;14.15;;;;;;;;;;4980937;28;20026;-58
2021/09/27 00:18:22;;;;;;;18.15;16.20;;;;;;;;;;4980782;28;20031;-58
2021/09/27 00:20:50;;;;;;;18.10;14.82;;;;;;;;;;4980692;28;20103;-58
2021/09/27 00:23:17;;;;;;;18.08;15.93;;;;;;;;;;4979723;28;20221;-60
2021/09/27 00:25:42;;;;;;;20.38;16.73;;;;;;;;;;4983251;28;20052;-59
2021/09/27 00:28:08;;;;;;;17.98;16.08;;;;;;;;;;4984003;28;20117;-60
2021/09/27 00:30:33;;;;;;;20.15;16.40;;;;;;;;;;4980665;28;20134;-59
2021/09/27 00:32:58;;;;;;;18.58;15.57;;;;;;;;;;4980860;28;20033;-59
2021/09/27 00:35:25;;;;;;;19.50;16.05;;;;;;;;;;4978114;28;20678;-59
2021/09/27 00:37:51;;;;;;;21.40;15.55;;;;;;;;;;4980240;28;20100;-59
2021/09/27 00:40:18;;;;;;;18.85;15.32;;;;;;;;;;4977788;28;20050;-59
2021/09/27 00:42:44;;;;;;;17.92;15.38;;;;;;;;;;4982779;28;20026;-58
2021/09/27 00:45:09;;;;;;;19.15;16.15;;;;;;;;;;4978790;28;20044;-56
2021/09/27 00:47:35;;;;;;;19.55;14.98;;;;;;;;;;4981573;28;20042;-59
2021/09/27 00:50:00;;;;;;;19.02;15.13;;;;;;;;;;4977361;28;20489;-57
2021/09/27 00:52:26;;;;;;;18.48;15.32;;;;;;;;;;4980962;28;20027;-59
2021/09/27 00:54:52;;;;;;;20.42;15.93;;;;;;;;;;4976821;28;20034;-58
2021/09/27 00:57:21;;;;;;;21.38;15.68;;;;;;;;;;4980991;28;20028;-58
2021/09/27 00:59:48;;;;;;;18.80;14.77;;;;;;;;;;4979288;28;20042;-60
2021/09/27 01:02:13;;;;;;;18.55;14.82;;;;;;;;;;4980036;28;20042;-60
2021/09/27 01:04:39;;;;;;;20.15;16.23;;;;;;;;;;4979398;28;20416;-60
2021/09/27 01:07:24;;;;;;;17.48;14.80;;;;;;;;;;4983213;28;20145;-59
2021/09/27 01:09:50;;;;;;;;;;;;;;;;;;4987717;28;20055;-59
2021/09/27 01:12:21;;;;;;;23.33;16.08;;;;;;;;;;4986316;28;19909;-54
2021/09/27 01:15:09;;;;;;;19.65;15.45;;;;;;;;;;4983831;28;20553;-59
2021/09/27 01:17:52;;;;;;;17.48;14.95;;;;;;;;;;4986523;28;20035;-59
2021/09/27 01:20:36;;;;;;;20.48;16.52;;;;;;;;;;4980927;28;20035;-58
2021/09/27 01:23:04;;;;;;;22.17;16.15;;;;;;;;;;4981787;28;20050;-58
2021/09/27 01:25:48;;;;;;;19.02;15.85;;;;;;;;;;4984539;28;20026;-59
2021/09/27 01:28:19;;;;;;;19.42;16.00;;;;;;;;;;4982394;28;20035;-58
2021/09/27 01:30:56;;;;;;;20.70;16.23;;;;;;;;;;4981763;28;20027;-57
2021/09/27 01:33:24;;;;;;;20.27;16.50;;;;;;;;;;4981181;28;20113;-56
2021/09/27 01:35:52;;;;;;;22.77;17.95;;;;;;;;;;4983648;28;20026;-58
2021/09/27 01:38:38;;;;;;;18.02;14.68;;;;;;;;;;4982125;28;20503;-58
2021/09/27 01:41:15;;;;;;;17.30;15.48;;;;;;;;;;4985272;28;20035;-59
2021/09/27 01:44:01;;;;;;;18.65;15.20;;;;;;;;;;4985398;28;20034;-57
2021/09/27 01:46:27;;;;;;;21.05;15.77;;;;;;;;;;4981535;28;20058;-58
2021/09/27 01:48:58;;;;;;;21.90;15.95;;;;;;;;;;4982153;28;20122;-58
2021/09/27 01:51:23;;;;;;;19.15;15.43;;;;;;;;;;4982619;28;20057;-58
2021/09/27 01:53:51;;;;;;;19.20;15.90;;;;;;;;;;4985725;28;20026;-57
2021/09/27 01:56:20;;;;;;;19.13;16.00;;;;;;;;;;4980329;28;20730;-58
2021/09/27 01:58:51;;;;;;;20.40;16.58;;;;;;;;;;4979899;28;20683;-58
2021/09/27 02:01:25;;;;;;;19.40;16.98;;;;;;;;;;4983705;28;20034;-58
2021/09/27 02:03:54;;;;;;;20.58;16.20;;;;;;;;;;4980372;28;20054;-56
2021/09/27 02:06:23;;;;;;;18.55;15.52;;;;;;;;;;4983973;28;20029;-58
2021/09/27 02:09:00;;;;;;;19.13;15.85;;;;;;;;;;4982669;28;20026;-57
2021/09/27 02:11:30;;;;;;;18.40;14.85;;;;;;;;;;4980305;28;20403;-57
2021/09/27 02:14:05;;;;;;;17.27;15.07;;;;;;;;;;4986170;28;20062;-58
2021/09/27 02:16:45;;;;;;;17.95;14.75;;;;;;;;;;4986915;28;20027;-59
2021/09/27 02:19:23;;;;;;;17.42;14.18;;;;;;;;;;4985693;28;20050;-59
2021/09/27 02:21:50;;;;;;;18.63;15.35;;;;;;;;;;4984582;28;20074;-56
2021/09/27 02:24:18;;;;;;;15.93;14.25;;;;;;;;;;4984152;28;20015;-57
2021/09/27 02:26:48;;;;;;;19.10;14.77;;;;;;;;;;4984437;28;20030;-58
2021/09/27 02:29:13;;;;;;;18.20;14.55;;;;;;;;;;4986238;28;20030;-56
2021/09/27 02:31:48;;;;;;;19.83;16.88;;;;;;;;;;4985616;28;20049;-57
2021/09/27 02:34:22;;;;;;;18.35;15.15;;;;;;;;;;4982150;28;20023;-58
2021/09/27 02:36:56;;;;;;;20.73;16.35;;;;;;;;;;4980282;28;20362;-58
2021/09/27 02:39:25;;;;;;;21.45;17.35;;;;;;;;;;4985563;28;20030;-58
2021/09/27 02:41:53;;;;;;;19.40;16.15;;;;;;;;;;4983891;28;20109;-55
2021/09/27 02:44:19;;;;;;;18.27;15.63;;;;;;;;;;4981005;28;20022;-59
2021/09/27 02:46:55;;;;;;;23.60;17.60;;;;;;;;;;4982520;28;20037;-58
2021/09/27 02:49:27;;;;;;;21.17;17.48;;;;;;;;;;4983206;28;20051;-57
2021/09/27 02:51:55;;;;;;;22.13;18.35;;;;;;;;;;4981489;28;20034;-58
2021/09/27 02:54:37;;;;;;;20.10;18.08;;;;;;;;;;4984610;28;20454;-58
2021/09/27 02:57:14;;;;;;;20.27;17.30;;;;;;;;;;4984009;28;20050;-58
2021/09/27 02:59:58;;;;;;;18.65;16.67;;;;;;;;;;4984662;28;20073;-59
2021/09/27 03:02:23;;;;;;;21.25;17.02;;;;;;;;;;4984222;28;20034;-55
2021/09/27 03:05:04;;;;;;;21.38;16.00;;;;;;;;;;4984888;28;20022;-58
2021/09/27 03:07:42;;;;;;;20.58;17.05;;;;;;;;;;4982364;28;20022;-58
2021/09/27 03:10:26;;;;;;;19.00;16.58;;;;;;;;;;4979709;28;20027;-59
2021/09/27 03:13:06;;;;;;;21.13;16.90;;;;;;;;;;4980549;28;20372;-58
2021/09/27 03:15:51;;;;;;;18.80;15.77;;;;;;;;;;4983540;28;20094;-58
2021/09/27 03:18:24;;;;;;;20.83;15.93;;;;;;;;;;4983568;28;20045;-59
2021/09/27 03:20:58;;;;;;;17.35;14.63;;;;;;;;;;4984222;28;20567;-59
2021/09/27 03:23:28;;;;;;;21.23;17.05;;;;;;;;;;4986482;28;20030;-59
2021/09/27 03:26:06;;;;;;;18.80;16.25;;;;;;;;;;4979201;28;20106;-59
2021/09/27 03:28:42;;;;;;;18.95;16.25;;;;;;;;;;4980720;28;20053;-59
2021/09/27 03:31:32;;;;;;;19.48;16.67;;;;;;;;;;4981487;28;20026;-59
2021/09/27 03:34:14;;;;;;;19.10;16.42;;;;;;;;;;4986423;28;20029;-59
2021/09/27 03:36:42;;;;;;;20.75;17.45;;;;;;;;;;4982061;28;20022;-59
2021/09/27 03:39:07;;;;;;;19.45;17.00;;;;;;;;;;4985216;28;20022;-58
2021/09/27 03:41:39;;;;;;;22.27;17.98;;;;;;;;;;4980674;28;20500;-58
2021/09/27 03:44:20;;;;;;;20.25;18.10;;;;;;;;;;4981819;28;20072;-58
2021/09/27 03:47:07;;;;;;;20.20;16.38;;;;;;;;;;4979889;28;20434;-59
2021/09/27 03:49:50;;;;;;;19.92;17.80;;;;;;;;;;4979326;28;20035;-59
2021/09/27 03:52:21;;;;;;;24.05;18.85;;;;;;;;;;4978312;28;20043;-57
2021/09/27 03:54:51;;;;;;;22.92;18.70;;;;;;;;;;4979013;28;20088;-58
2021/09/27 03:57:34;;;;;;;21.48;18.45;;;;;;;;;;4980760;28;20026;-58
2021/09/27 04:00:03;;;;;;;20.85;18.20;;;;;;;;;;4978698;28;20026;-59
2021/09/27 04:02:34;;;;;;;20.08;17.77;;;;;;;;;;4978070;28;20085;-56
2021/09/27 04:05:02;;;;;;;20.25;17.88;;;;;;;;;;4980980;28;20046;-57
2021/09/27 04:07:53;;;;;;;20.52;18.27;;;;;;;;;;4980397;28;20022;-59
2021/09/27 04:10:22;;;;;;;22.30;18.15;;;;;;;;;;4981566;28;20066;-56
2021/09/27 04:12:47;;;;;;;27.35;19.17;;;;;;;;;;4979223;28;20018;-55
2021/09/27 04:15:41;;;;;;;20.98;17.83;;;;;;;;;;4980699;28;20480;-59
2021/09/27 04:18:27;;;;;;;21.23;18.45;;;;;;;;;;4978226;28;20035;-59
2021/09/27 04:21:01;;;;;;;19.40;16.98;;;;;;;;;;4963976;28;20081;-59
2021/09/27 04:23:26;;;;;;;21.83;17.67;;;;;;;;;;4978438;28;20034;-59
2021/09/27 04:26:00;;;;;;;21.77;18.83;;;;;;;;;;4980026;28;20065;-56
2021/09/27 04:28:31;;;;;;;22.45;18.95;;;;;;;;;;4978346;28;20034;-59
2021/09/27 04:31:06;;;;;;;24.50;19.48;;;;;;;;;;4977797;28;20126;-58
2021/09/27 04:33:57;;;;;;;24.65;20.08;;;;;;;;;;4979350;28;20045;-59
2021/09/27 04:36:25;;;;;;;21.98;19.00;;;;;;;;;;4980559;28;20046;-58
2021/09/27 04:38:53;;;;;;;22.33;19.05;;;;;;;;;;4970119;28;20054;-57
2021/09/27 04:41:21;;;;;;;25.77;20.63;;;;;;;;;;4965066;28;20031;-59
2021/09/27 04:44:05;;;;;;;20.88;17.92;;;;;;;;;;4975187;28;20050;-58
2021/09/27 04:46:42;;;;;;;23.75;18.48;;;;;;;;;;4978824;28;20027;-59
2021/09/27 04:49:08;;;;;;;22.83;18.55;;;;;;;;;;4976895;28;20039;-57
2021/09/27 04:51:51;;;;;;;23.02;20.00;;;;;;;;;;4980308;28;20420;-57
2021/09/27 04:54:35;;;;;;;23.33;19.52;;;;;;;;;;4980002;28;20470;-58
2021/09/27 04:57:08;;;;;;;26.65;20.23;;;;;;;;;;4981765;28;20025;-59
2021/09/27 04:59:39;;;;;;;22.15;19.67;;;;;;;;;;4982546;28;20045;-59
2021/09/27 05:02:07;;;;;;;21.58;18.08;;;;;;;;;;4977907;28;20094;-59
2021/09/27 05:04:32;;;;;;;23.05;18.23;;;;;;;;;;4977205;28;20101;-57
2021/09/27 05:07:16;;;;;;;24.35;20.05;;;;;;;;;;4980190;28;20030;-56
2021/09/27 05:09:44;;;;;;;22.77;18.35;;;;;;;;;;4979125;28;20033;-59
2021/09/27 05:12:21;;;;;;;22.63;19.55;;;;;;;;;;4978871;28;20169;-59
2021/09/27 05:14:52;;;;;;;23.17;20.60;;;;;;;;;;4982253;28;20077;-59
2021/09/27 05:17:23;;;;;;;21.98;19.52;;;;;;;;;;4982580;28;20019;-59
2021/09/27 05:19:51;;;;;;;26.05;22.02;;;;;;;;;;4980764;28;20172;-56
2021/09/27 05:22:27;;;;;;;24.73;20.60;;;;;;;;;;4976910;28;20059;-60
2021/09/27 05:24:55;;;;;;;23.23;20.02;;;;;;;;;;4982351;28;20027;-58
2021/09/27 05:27:29;;;;;;;22.90;19.38;;;;;;;;;;4982729;28;20065;-56
2021/09/27 05:30:06;;;;;;;23.17;19.47;;;;;;;;;;4981011;28;20030;-58
2021/09/27 05:32:50;;;;;;;26.63;22.10;;;;;;;;;;4976367;28;20378;-56
2021/09/27 05:35:15;;;;;;;26.88;21.95;;;;;;;;;;4983068;28;20350;-58
2021/09/27 05:37:49;;;;;;;25.25;21.02;;;;;;;;;;4976658;28;20085;-60
2021/09/27 05:40:30;;;;;;;23.30;20.00;;;;;;;;;;4977449;28;20023;-57
2021/09/27 05:43:13;;;;;;;21.88;19.52;;;;;;;;;;4979876;28;20069;-58
2021/09/27 05:45:53;;;;;;;25.77;19.60;;;;;;;;;;4978894;28;20092;-58
2021/09/27 05:48:19;;;;;;;24.08;18.98;;;;;;;;;;4976268;28;20377;-59
2021/09/27 05:50:56;;;;;;;21.52;19.05;;;;;;;;;;4979976;28;20041;-57
2021/09/27 05:53:28;;;;;;;21.27;18.13;;;;;;;;;;4982327;28;20019;-59
2021/09/27 05:56:25;;;;;;;21.08;18.52;;;;;;;;;;4983537;28;20035;-56
2021/09/27 05:59:03;;;;;;;21.33;18.13;;;;;;;;;;4960458;28;20046;-58
2021/09/27 06:01:43;;;;;;;22.60;18.80;;;;;;;;;;4984835;28;20030;-58
2021/09/27 06:04:32;;;;;;;22.75;18.38;;;;;;;;;;4979707;28;20105;-59
2021/09/27 06:06:59;;;;;;;22.67;19.20;;;;;;;;;;4982167;28;20086;-57
2021/09/27 06:09:40;;;;;;;23.85;19.10;;;;;;;;;;4979991;28;20643;-58
2021/09/27 06:12:11;;;;;;;25.10;20.27;;;;;;;;;;4987439;28;20034;-59
2021/09/27 06:14:36;;;;;;;28.85;22.27;;;;;;;;;;4982682;28;20026;-60
2021/09/27 06:17:13;;;;;;;25.38;20.60;;;;;;;;;;4985677;28;20033;-59
2021/09/27 06:19:45;;;;;;;30.30;21.83;;;;;;;;;;4983037;28;20046;-58
2021/09/27 06:22:13;;;;;;;24.52;20.45;;;;;;;;;;4982526;28;20052;-59
2021/09/27 06:24:49;;;;;;;25.38;20.85;;;;;;;;;;4981560;28;20031;-60
2021/09/27 06:27:19;;;;;;;28.15;22.50;;;;;;;;;;4979913;28;20125;-59
2021/09/27 06:29:57;;;;;;;31.58;23.60;;;;;;;;;;4980402;28;20137;-59
2021/09/27 06:32:50;;;;;;;31.92;24.08;;;;;;;;;;4983412;28;20023;-58
2021/09/27 06:35:16;;;;;;;28.52;23.58;;;;;;;;;;4982380;28;20056;-59
2021/09/27 06:37:41;;;;;;;27.40;21.83;;;;;;;;;;4981114;28;20053;-59
2021/09/27 06:40:09;;;;;;;20.38;17.58;;;;;;;;;;4985291;28;20077;-59
2021/09/27 06:42:34;;;;;;;19.25;17.25;;;;;;;;;;4980682;28;20046;-59
2021/09/27 06:44:59;;;;;;;19.92;17.38;;;;;;;;;;4982600;28;20061;-58
2021/09/27 06:47:25;;;;;;;19.42;16.58;;;;;;;;;;4979544;28;20041;-59
2021/09/27 06:49:50;;;;;;;17.17;15.38;;;;;;;;;;4983316;28;20100;-57
2021/09/27 06:52:17;;;;;;;16.02;14.40;;;;;;;;;;4979861;28;20038;-59
2021/09/27 06:54:42;;;;;;;15.38;13.77;;;;;;;;;;4984443;28;20026;-58
2021/09/27 06:57:07;;;;;;;15.18;13.60;;;;;;;;;;4986212;28;20049;-59
2021/09/27 06:59:33;;;;;;;12.80;11.50;;;;;;;;;;4980429;28;20026;-59
2021/09/27 07:01:58;;;;;;;9.90;8.90;;;;;;;;;;4985531;28;20026;-57
2021/09/27 07:04:24;;;;;;;9.57;8.68;;;;;;;;;;4980742;28;20023;-58
2021/09/27 07:06:49;;;;;;;10.02;8.07;;;;;;;;;;4981915;28;20018;-58
2021/09/27 07:09:14;;;;;;;8.75;7.95;;;;;;;;;;4980596;28;20030;-51
2021/09/27 07:11:40;;;;;;;8.85;7.13;;;;;;;;;;4981911;28;20041;-56
2021/09/27 07:14:06;;;;;;;7.88;7.28;;;;;;;;;;4980750;28;20018;-60
2021/09/27 07:16:31;;;;;;;7.13;6.43;;;;;;;;;;4982563;28;20027;-59
2021/09/27 07:18:56;;;;;;;6.03;5.53;;;;;;;;;;4984044;28;20097;-59
2021/09/27 07:21:21;;;;;;;5.78;5.38;;;;;;;;;;4981702;28;20084;-59
2021/09/27 07:23:47;;;;;;;4.40;4.07;;;;;;;;;;4980819;28;20031;-59
2021/09/27 07:26:13;;;;;;;4.07;3.78;;;;;;;;;;4981015;28;20402;-61
2021/09/27 07:28:39;;;;;;;5.63;5.13;;;;;;;;;;4981180;28;20038;-59
2021/09/27 07:31:05;;;;;;;5.10;4.53;;;;;;;;;;4980410;28;20034;-59
2021/09/27 07:33:30;;;;;;;4.97;4.50;;;;;;;;;;4981399;28;20599;-58
2021/09/27 07:35:56;;;;;;;5.80;5.03;;;;;;;;;;4979452;28;20114;-58
2021/09/27 07:38:22;;;;;;;4.18;3.88;;;;;;;;;;4981897;28;20022;-57
2021/09/27 07:40:47;;;;;;;3.33;3.13;;;;;;;;;;4979490;28;20397;-57
2021/09/27 07:43:13;;;;;;;3.40;3.20;;;;;;;;;;4982140;28;20027;-57
2021/09/27 07:45:38;;;;;;;5.18;3.63;;;;;;;;;;4982480;28;20034;-58
2021/09/27 07:48:06;;;;;;;3.13;2.92;;;;;;;;;;4978740;28;20035;-57
2021/09/27 07:50:32;;;;;;;3.05;2.85;;;;;;;;;;4978767;28;20056;-57
2021/09/27 07:52:57;;;;;;;2.95;2.75;;;;;;;;;;4981755;28;21364;-58
2021/09/27 07:55:23;;;;;;;3.17;2.97;;;;;;;;;;4980961;28;21113;-61
2021/09/27 07:57:48;;;;;;;2.67;2.47;;;;;;;;;;4979724;28;20031;-58
2021/09/27 08:00:15;;;;;;;2.38;2.28;;;;;;;;;;4980727;28;20026;-57
2021/09/27 08:02:41;;;;;;;2.65;2.45;;;;;;;;;;4979588;28;20045;-56
2021/09/27 08:05:08;;;;;;;2.75;2.50;;;;;;;;;;4979777;28;20189;-58
2021/09/27 08:07:33;;;;;;;2.22;2.13;;;;;;;;;;4979541;28;20015;-58
2021/09/27 08:09:58;;;;;;;2.58;2.40;;;;;;;;;;4979966;28;20129;-58
2021/09/27 08:12:23;;;;;;;1.60;1.58;;;;;;;;;;4980135;28;20038;-57
2021/09/27 08:14:49;;;;;;;2.15;2.05;;;;;;;;;;4979377;28;20030;-58
2021/09/27 08:17:14;;;;;;;1.65;1.55;;;;;;;;;;4979429;28;20050;-58
2021/09/27 08:19:42;;;;;;;2.38;1.88;;;;;;;;;;4979954;28;20030;-57
2021/09/27 08:22:07;;;;;;;1.80;1.70;;;;;;;;;;4979798;28;20058;-57
2021/09/27 08:24:33;;;;;;;1.60;1.50;;;;;;;;;;4978778;28;20084;-59
2021/09/27 08:26:58;;;;;;;2.78;1.48;;;;;;;;;;4979899;28;20030;-57
2021/09/27 08:29:24;;;;;;;2.15;1.50;;;;;;;;;;4984075;28;20088;-59
2021/09/27 08:31:49;;;;;;;1.27;1.23;;;;;;;;;;4978962;28;20057;-57
2021/09/27 08:34:16;;;;;;;1.45;1.40;;;;;;;;;;4981231;28;20042;-58
2021/09/27 08:36:42;;;;;;;1.13;1.10;;;;;;;;;;4980419;28;20385;-59
2021/09/27 08:39:07;;;;;;;1.58;1.45;;;;;;;;;;4981252;28;20026;-59
2021/09/27 08:41:38;;;;;;;1.40;1.35;;;;;;;;;;4977512;28;20372;-58
2021/09/27 08:44:03;;;;;;;1.75;1.65;;;;;;;;;;4979989;28;20057;-60
2021/09/27 08:46:42;;;;;;;1.60;1.45;;;;;;;;;;4977757;28;20026;-59
2021/09/27 08:49:30;;;;;;;1.70;1.50;;;;;;;;;;4977099;28;20444;-59
2021/09/27 08:51:55;;;;;;;1.38;1.30;;;;;;;;;;4982558;28;20910;-59
2021/09/27 08:54:22;;;;;;;1.33;1.33;;;;;;;;;;4980341;28;20037;-61
2021/09/27 08:56:53;;;;;;;1.10;1.10;;;;;;;;;;4977382;28;20058;-59
2021/09/27 08:59:18;;;;;;;1.48;1.40;;;;;;;;;;4976759;28;20122;-60
2021/09/27 09:01:49;;;;;;;1.30;1.30;;;;;;;;;;4981024;28;20105;-59
2021/09/27 09:04:40;;;;;;;1.70;1.60;;;;;;;;;;4978064;28;20050;-56
2021/09/27 09:07:08;;;;;;;2.10;2.00;;;;;;;;;;4977439;28;20023;-60
2021/09/27 09:09:48;;;;;;;2.08;1.85;;;;;;;;;;4978809;28;20058;-58
2021/09/27 09:12:29;;;;;;;1.40;1.30;;;;;;;;;;4981323;28;20030;-58
2021/09/27 09:15:01;;;;;;;1.77;1.63;;;;;;;;;;4979556;28;20081;-54
2021/09/27 09:17:31;;;;;;;1.65;1.55;;;;;;;;;;4981519;28;20031;-55
2021/09/27 09:19:57;;;;;;;1.63;1.52;;;;;;;;;;4976483;28;20392;-55
2021/09/27 09:22:28;;;;;;;1.25;1.25;;;;;;;;;;4977980;28;20057;-55
2021/09/27 09:24:54;;;;;;;1.50;1.40;;;;;;;;;;4978208;28;20392;-59
2021/09/27 09:27:20;;;;;;;1.88;1.70;;;;;;;;;;4977992;28;20037;-56
2021/09/27 09:29:46;;;;;;;1.80;1.70;;;;;;;;;;4984173;28;20027;-56
2021/09/27 09:32:14;;;;;;;3.08;2.03;;;;;;;;;;4979194;28;20058;-54
2021/09/27 09:34:40;;;;;;;3.00;1.80;;;;;;;;;;4982590;28;20033;-59
2021/09/27 09:37:09;;;;;;;2.22;1.70;;;;;;;;;;4981155;28;20018;-58
2021/09/27 09:39:40;;;;;;;5.65;2.22;;;;;;;;;;4980260;28;20065;-57
2021/09/27 09:42:22;;;;;;;2.05;1.95;;;;;;;;;;4978650;28;20461;-57
2021/09/27 09:44:49;;;;;;;2.10;2.00;;;;;;;;;;4979882;28;20105;-57
2021/09/27 09:47:22;;;;;;;2.53;2.33;;;;;;;;;;4980324;28;20751;-56
2021/09/27 09:49:50;;;;;;;2.80;2.60;;;;;;;;;;4983258;28;20039;-56
2021/09/27 09:52:21;;;;;;;3.25;2.00;;;;;;;;;;4979791;28;20400;-57
2021/09/27 09:54:50;;;;;;;2.20;2.10;;;;;;;;;;4981428;28;20041;-55
2021/09/27 09:57:29;;;;;;;2.63;1.88;;;;;;;;;;4979512;28;20396;-55
2021/09/27 09:59:59;;;;;;;1.92;1.80;;;;;;;;;;4988781;28;20023;-56
2021/09/27 10:02:24;;;;;;;2.10;2.00;;;;;;;;;;4984120;28;20562;-57
2021/09/27 10:05:00;;;;;;;2.30;2.17;;;;;;;;;;4982265;28;20022;-57
2021/09/27 10:07:29;;;;;;;2.30;2.10;;;;;;;;;;4980633;28;20073;-57
2021/09/27 10:09:56;;;;;;;2.63;2.47;;;;;;;;;;4980867;28;20031;-58
2021/09/27 10:12:40;;;;;;;2.63;2.42;;;;;;;;;;4981226;28;20019;-58
2021/09/27 10:15:06;;;;;;;2.95;1.83;;;;;;;;;;4982901;28;20104;-58
2021/09/27 10:17:34;;;;;;;2.10;2.00;;;;;;;;;;4980439;28;20555;-57
2021/09/27 10:20:16;;;;;;;2.15;2.03;;;;;;;;;;4980246;28;20034;-58
2021/09/27 10:22:54;;;;;;;2.45;2.35;;;;;;;;;;4980459;28;20104;-55
2021/09/27 10:25:40;;;;;;;1.98;1.88;;;;;;;;;;4980119;28;20031;-58
2021/09/27 10:28:07;;;;;;;1.90;1.80;;;;;;;;;;4981403;28;20503;-58
2021/09/27 10:30:35;;;;;;;2.20;2.10;;;;;;;;;;4981113;28;20077;-58
2021/09/27 10:33:03;;;;;;;2.20;2.00;;;;;;;;;;4982785;28;20030;-58
2021/09/27 10:35:31;;;;;;;4.00;2.10;;;;;;;;;;4981371;28;20080;-59
2021/09/27 10:38:02;;;;;;;5.78;2.58;;;;;;;;;;4979823;28;20035;-59
2021/09/27 10:40:27;;;;;;;2.10;2.00;;;;;;;;;;4981940;28;20061;-59
2021/09/27 10:42:53;;;;;;;2.35;2.08;;;;;;;;;;4980967;28;20051;-56
2021/09/27 10:45:20;;;;;;;2.33;2.13;;;;;;;;;;4982874;28;20041;-57
2021/09/27 10:47:50;;;;;;;2.30;2.10;;;;;;;;;;4981936;28;20036;-56
2021/09/27 10:50:24;;;;;;;1.75;1.65;;;;;;;;;;4979733;28;20034;-58
2021/09/27 10:52:49;;;;;;;3.35;2.55;;;;;;;;;;4983428;28;20022;-56
2021/09/27 10:55:23;;;;;;;2.00;1.90;;;;;;;;;;4980089;28;20034;-57
2021/09/27 10:57:57;;;;;;;2.33;2.22;;;;;;;;;;4984452;28;20053;-54
2021/09/27 11:00:28;;;;;;;2.40;2.20;;;;;;;;;;4986238;28;20342;-57
2021/09/27 11:03:05;;;;;;;2.58;2.38;;;;;;;;;;4984481;28;20120;-57
2021/09/27 11:05:47;;;;;;;1.85;1.75;;;;;;;;;;4997161;28;20031;-55
2021/09/27 11:08:13;;;;;;;2.30;2.20;;;;;;;;;;4979785;28;20477;-58
2021/09/27 11:10:38;;;;;;;2.78;2.58;;;;;;;;;;4982709;28;20483;-57
2021/09/27 11:13:05;;;;;;;2.72;2.53;;;;;;;;;;4979947;28;20163;-58
2021/09/27 11:15:34;;;;;;;2.63;2.28;;;;;;;;;;4983139;28;20106;-57
2021/09/27 11:18:12;;;;;;;3.33;2.80;;;;;;;;;;4980346;28;20118;-59
2021/09/27 11:20:38;;;;;;;2.90;2.70;;;;;;;;;;4980016;28;20389;-56
2021/09/27 11:23:16;;;;;;;2.53;2.40;;;;;;;;;;4982566;28;20026;-58
2021/09/27 11:25:41;;;;;;;2.40;2.20;;;;;;;;;;4982439;28;20046;-56
2021/09/27 11:28:24;;;;;;;4.55;3.17;;;;;;;;;;4982090;28;20128;-58
2021/09/27 11:30:59;;;;;;;4.20;2.50;;;;;;;;;;4982809;28;20034;-57
2021/09/27 11:33:26;;;;;;;3.00;2.47;;;;;;;;;;4980341;28;20033;-58
2021/09/27 11:35:52;;;;;;;2.22;2.13;;;;;;;;;;4981114;28;20037;-58
2021/09/27 11:38:34;;;;;;;1.92;1.83;;;;;;;;;;4980418;28;20042;-57
2021/09/27 11:41:23;;;;;;;2.60;2.40;;;;;;;;;;4980914;28;20041;-58
2021/09/27 11:43:48;;;;;;;2.78;2.58;;;;;;;;;;4983629;28;20034;-59
2021/09/27 11:46:16;;;;;;;2.92;2.72;;;;;;;;;;4979724;28;20029;-58
2021/09/27 11:48:46;;;;;;;3.25;3.05;;;;;;;;;;4980005;28;20051;-57
2021/09/27 11:51:17;;;;;;;2.45;2.25;;;;;;;;;;4981732;28;20034;-57
2021/09/27 11:53:53;;;;;;;2.70;2.50;;;;;;;;;;4980563;28;20022;-56
2021/09/27 11:56:21;;;;;;;2.63;2.42;;;;;;;;;;4980852;28;20034;-58
2021/09/27 11:58:53;;;;;;;2.30;2.10;;;;;;;;;;4983580;28;20552;-58
2021/09/27 12:01:18;;;;;;;2.38;2.28;;;;;;;;;;4981123;28;20018;-57
2021/09/27 12:04:06;;;;;;;2.92;2.72;;;;;;;;;;4979569;28;20081;-56
2021/09/27 12:06:34;;;;;;;2.40;2.20;;;;;;;;;;4943730;29;20035;-58
2021/09/27 12:08:59;;;;;;;3.25;3.00;;;;;;;;;;4937776;29;20040;-57
2021/09/27 12:11:24;;;;;;;3.05;2.85;;;;;;;;;;4939838;29;20465;-59
2021/09/27 12:13:51;;;;;;;2.95;2.75;;;;;;;;;;4937334;29;20040;-57
2021/09/27 12:16:27;;;;;;;3.28;3.00;;;;;;;;;;4938141;29;20486;-57
2021/09/27 12:18:54;;;;;;;3.95;3.13;;;;;;;;;;4940125;29;20050;-58
2021/09/27 12:21:22;;;;;;;3.13;2.85;;;;;;;;;;4942070;29;20051;-58
2021/09/27 12:23:56;;;;;;;3.20;3.00;;;;;;;;;;4939549;29;20387;-56
2021/09/27 12:26:25;;;;;;;2.70;2.50;;;;;;;;;;4936403;29;20074;-54
2021/09/27 12:28:59;;;;;;;2.90;2.70;;;;;;;;;;4937052;29;20294;-57
2021/09/27 12:31:24;;;;;;;4.80;2.65;;;;;;;;;;4940472;28;20789;-56
2021/09/27 12:33:49;;;;;;;2.53;2.33;;;;;;;;;;4938406;28;20039;-59
2021/09/27 12:36:20;;;;;;;3.75;2.40;;;;;;;;;;4935519;29;20402;-56
2021/09/27 12:38:47;;;;;;;2.38;2.22;;;;;;;;;;4943590;29;20045;-57
2021/09/27 12:41:13;;;;;;;2.42;1.95;;;;;;;;;;4937041;29;20501;-57
2021/09/27 12:43:38;;;;;;;3.38;2.15;;;;;;;;;;4961003;28;20039;-57
2021/09/27 12:46:07;;;;;;;2.45;2.25;;;;;;;;;;4978569;28;20803;-54
2021/09/27 12:48:38;;;;;;;2.53;2.33;;;;;;;;;;4979901;28;20571;-57
2021/09/27 12:51:10;;;;;;;2.55;2.40;;;;;;;;;;4979557;28;20166;-59
2021/09/27 12:53:35;;;;;;;2.80;2.42;;;;;;;;;;4976791;28;20034;-59
2021/09/27 12:56:01;;;;;;;2.92;2.72;;;;;;;;;;4977235;28;20019;-57
2021/09/27 12:58:52;;;;;;;2.42;2.28;;;;;;;;;;4981937;28;20105;-59
2021/09/27 13:01:20;;;;;;;2.25;2.10;;;;;;;;;;4976260;28;20945;-58
2021/09/27 13:03:48;;;;;;;2.50;2.30;;;;;;;;;;4979418;28;20030;-59
2021/09/27 13:06:14;;;;;;;2.08;1.98;;;;;;;;;;4979335;28;20085;-59
2021/09/27 13:08:45;;;;;;;2.30;2.10;;;;;;;;;;4978706;28;20037;-61
2021/09/27 13:11:20;;;;;;;2.42;2.20;;;;;;;;;;4979464;28;20033;-59
2021/09/27 13:13:55;;;;;;;2.90;2.10;;;;;;;;;;4979960;28;20105;-58
2021/09/27 13:16:25;;;;;;;2.17;1.98;;;;;;;;;;4978008;28;20050;-58
2021/09/27 13:18:50;;;;;;;2.10;2.00;;;;;;;;;;4979843;28;20120;-57
2021/09/27 13:21:18;;;;;;;2.92;2.63;;;;;;;;;;4985158;28;20513;-57
2021/09/27 13:23:46;;;;;;;5.30;2.95;;;;;;;;;;4982819;28;20053;-54
2021/09/27 13:26:17;;;;;;;13.32;6.63;;;;;;;;;;4979125;28;20369;-53
2021/09/27 13:29:02;;;;;;;9.15;5.72;;;;;;;;;;4979162;28;20039;-56
2021/09/27 13:31:29;;;;;;;10.60;6.30;;;;;;;;;;4978797;28;20392;-54
2021/09/27 13:33:57;;;;;;;8.43;4.85;;;;;;;;;;4975471;28;20794;-57
2021/09/27 13:36:32;;;;;;;5.20;3.58;;;;;;;;;;4974645;28;20081;-58
2021/09/27 13:39:02;;;;;;;2.58;2.38;;;;;;;;;;4975261;28;20452;-57
2021/09/27 13:41:40;;;;;;;2.15;2.05;;;;;;;;;;4977363;28;20133;-57
2021/09/27 13:44:05;;;;;;;2.08;1.95;;;;;;;;;;4975963;28;20026;-58
2021/09/27 13:46:31;;;;;;;2.50;2.30;;;;;;;;;;4976588;28;20496;-58
2021/09/27 13:48:57;;;;;;;4.07;2.55;;;;;;;;;;4978833;28;20477;-57
2021/09/27 13:51:24;;;;;;;1.88;1.77;;;;;;;;;;4975553;28;20082;-55
2021/09/27 13:53:59;;;;;;;3.03;2.03;;;;;;;;;;4978829;28;20691;-58
2021/09/27 13:56:29;;;;;;;3.75;2.53;;;;;;;;;;4978681;28;20046;-53
2021/09/27 13:58:54;;;;;;;2.35;2.15;;;;;;;;;;4976681;28;20030;-55
2021/09/27 14:01:19;;;;;;;3.25;2.50;;;;;;;;;;4979182;28;20133;-59
2021/09/27 14:03:45;;;;;;;2.17;2.08;;;;;;;;;;4977472;28;20027;-59
2021/09/27 14:06:18;;;;;;;2.17;2.08;;;;;;;;;;4978990;28;20461;-59
2021/09/27 14:08:43;;;;;;;2.25;2.05;;;;;;;;;;4976085;28;20035;-59
2021/09/27 14:11:09;;;;;;;2.25;2.05;;;;;;;;;;4979278;28;20424;-59
2021/09/27 14:13:35;;;;;;;2.28;2.08;;;;;;;;;;4977148;28;20463;-59
2021/09/27 14:16:05;;;;;;;1.88;1.60;;;;;;;;;;4981099;28;20026;-58
2021/09/27 14:18:30;;;;;;;1.90;1.80;;;;;;;;;;4980822;28;20061;-56
2021/09/27 14:20:56;;;;;;;9.75;4.85;;;;;;;;;;4982228;28;20769;-60
2021/09/27 14:23:21;;;;;;;2.42;2.20;;;;;;;;;;4981533;28;20362;-59
2021/09/27 14:25:47;;;;;;;2.33;2.22;;;;;;;;;;4981467;28;20022;-58
2021/09/27 14:28:12;;;;;;;2.38;2.17;;;;;;;;;;4981788;28;20031;-60
2021/09/27 14:30:38;;;;;;;3.53;2.50;;;;;;;;;;4985582;28;20026;-58
2021/09/27 14:33:03;;;;;;;2.63;2.42;;;;;;;;;;4984545;28;20034;-58
2021/09/27 14:35:29;;;;;;;7.00;2.85;;;;;;;;;;4980610;28;20031;-59
2021/09/27 14:37:54;;;;;;;2.78;2.58;;;;;;;;;;4982011;28;20030;-57
2021/09/27 14:40:21;;;;;;;2.72;2.47;;;;;;;;;;4980094;28;20041;-58
2021/09/27 14:42:46;;;;;;;3.30;2.95;;;;;;;;;;4982738;28;20022;-58
2021/09/27 14:45:12;;;;;;;3.47;3.17;;;;;;;;;;4981238;28;20496;-59
2021/09/27 14:47:38;;;;;;;3.03;2.83;;;;;;;;;;4985305;28;20023;-57
2021/09/27 14:50:04;;;;;;;3.25;2.95;;;;;;;;;;4978796;28;20045;-58
2021/09/27 14:52:29;;;;;;;3.92;2.55;;;;;;;;;;4997923;28;20117;-58